Time;durP1;ratioP1;P1;durP2;ratioP2;P2;SDS_P1;SDS_P2;PMS_P1;PMS_P2;Temp;Humidity;BMP_temperature;BMP_pressure;BME280_temperature;BME280_humidity;BME280_pressure;Samples;Min_cycle;Max_cycle;Signal;HPM_P1;HPM_P2
2022/04/04 00:01:40;;;;;;;12.98;6.35;;;;;;;1.76;51.64;100446.40;1725469;81;29070;-77
2022/04/04 00:04:07;;;;;;;16.12;7.45;;;;;;;1.74;51.87;100444.37;1725449;81;26169;-77
2022/04/04 00:06:33;;;;;;;14.75;7.05;;;;;;;1.70;51.86;100446.47;1740976;81;25770;-77
2022/04/04 00:08:59;;;;;;;18.20;6.83;;;;;;;1.66;51.89;100441.11;1742477;81;26008;-77
2022/04/04 00:11:25;;;;;;;19.05;8.43;;;;;;;1.62;51.71;100434.42;1744143;81;25916;-77
2022/04/04 00:13:51;;;;;;;15.10;7.72;;;;;;;1.58;51.79;100432.52;1741118;81;27499;-77
2022/04/04 00:16:18;;;;;;;15.58;7.00;;;;;;;1.56;51.85;100433.64;1733309;81;25715;-77
2022/04/04 00:18:44;;;;;;;15.10;7.33;;;;;;;1.54;51.88;100433.76;1740606;81;25893;-77
2022/04/04 00:21:10;;;;;;;15.15;7.42;;;;;;;1.49;51.77;100424.58;1749995;81;26362;-77
2022/04/04 00:23:36;;;;;;;13.95;6.75;;;;;;;1.47;51.97;100426.52;1736690;81;25760;-77
2022/04/04 00:26:05;;;;;;;16.65;7.80;;;;;;;1.45;51.94;100422.67;1739552;81;27480;-77
2022/04/04 00:28:32;;;;;;;10.82;5.62;;;;;;;1.44;52.01;100424.13;1725037;81;25940;-77
2022/04/04 00:30:58;;;;;;;13.15;7.00;;;;;;;1.40;51.97;100425.37;1742310;81;25769;-76
2022/04/04 00:33:24;;;;;;;15.15;6.20;;;;;;;1.36;52.08;100418.69;1742257;81;25925;-77
2022/04/04 00:35:50;;;;;;;16.23;7.83;;;;;;;1.35;52.15;100430.20;1725677;81;25879;-77
2022/04/04 00:38:18;;;;;;;16.27;7.30;;;;;;;1.35;52.23;100422.28;1733176;80;27457;-77
2022/04/04 00:40:44;;;;;;;15.48;7.58;;;;;;;1.34;52.26;100414.88;1743957;81;25834;-77
2022/04/04 00:43:11;;;;;;;17.70;7.92;;;;;;;1.34;52.22;100414.03;1729858;81;25842;-77
2022/04/04 00:45:37;;;;;;;15.00;7.35;;;;;;;1.32;52.27;100409.38;1737703;81;26520;-77
2022/04/04 00:48:04;;;;;;;15.23;7.80;;;;;;;1.29;52.38;100412.27;1733953;81;25716;-77
2022/04/04 00:50:30;;;;;;;14.10;8.85;;;;;;;1.24;52.55;100408.70;1748230;81;28348;-77
2022/04/04 00:52:56;;;;;;;16.23;9.10;;;;;;;1.20;52.63;100403.81;1736821;81;25818;-77
2022/04/04 00:55:24;;;;;;;11.70;6.78;;;;;;;1.18;52.84;100402.63;1744057;81;25768;-77
2022/04/04 00:57:53;;;;;;;18.90;6.53;;;;;;;1.17;52.84;100405.41;1741737;81;25914;-77
2022/04/04 01:00:20;;;;;;;14.90;7.55;;;;;;;1.12;53.05;100396.57;1738488;81;26139;-77
2022/04/04 01:02:46;;;;;;;13.58;6.62;;;;;;;1.11;53.22;100394.89;1747085;81;27471;-77
2022/04/04 01:05:12;;;;;;;13.93;7.25;;;;;;;1.08;53.32;100396.96;1735064;81;25742;-77
2022/04/04 01:07:40;;;;;;;16.30;7.83;;;;;;;1.07;53.42;100392.16;1731843;81;25903;-77
2022/04/04 01:10:13;;;;;;;16.73;7.05;;;;;;;1.05;53.62;100384.87;1740190;81;26680;-77
2022/04/04 01:12:37;;;;;;;15.25;9.00;;;;;;;1.01;53.82;100386.09;1727021;81;25830;-77
2022/04/04 01:15:04;;;;;;;18.60;8.88;;;;;;;0.99;53.99;100381.91;1728141;81;28362;-77
2022/04/04 01:17:30;;;;;;;19.98;9.80;;;;;;;0.97;54.25;100375.94;1747178;80;26457;-77
2022/04/04 01:19:57;;;;;;;17.75;9.18;;;;;;;0.93;54.38;100375.38;1736803;81;25969;-77
2022/04/04 01:22:24;;;;;;;14.63;8.00;;;;;;;0.90;54.48;100371.67;1744334;81;25739;-77
2022/04/04 01:24:51;;;;;;;13.65;6.95;;;;;;;0.89;54.69;100368.70;1741694;82;25953;-77
2022/04/04 01:27:17;;;;;;;12.33;6.85;;;;;;;0.88;54.72;100370.97;1742853;81;27504;-77
2022/04/04 01:29:44;;;;;;;13.20;6.58;;;;;;;0.87;54.78;100366.67;1733650;81;25892;-77
2022/04/04 01:32:10;;;;;;;14.47;6.40;;;;;;;0.83;54.91;100360.47;1738979;80;25806;-77
2022/04/04 01:34:37;;;;;;;16.87;7.50;;;;;;;0.81;54.93;100361.09;1750661;81;25799;-77
2022/04/04 01:37:04;;;;;;;11.43;6.60;;;;;;;0.81;54.94;100357.13;1753948;81;25874;-77
2022/04/04 01:39:31;;;;;;;13.58;6.28;;;;;;;0.81;55.10;100357.13;1757134;81;26913;-77
2022/04/04 01:41:57;;;;;;;12.20;6.37;;;;;;;0.76;55.16;100352.25;1732944;81;26312;-77
2022/04/04 01:44:24;;;;;;;13.45;6.37;;;;;;;0.72;55.20;100345.09;1738874;81;25286;-77
2022/04/04 01:46:50;;;;;;;12.33;5.85;;;;;;;0.72;55.39;100350.37;1734941;81;26536;-77
2022/04/04 01:49:16;;;;;;;10.00;6.08;;;;;;;0.72;55.52;100342.94;1754478;81;26098;-77
2022/04/04 01:51:43;;;;;;;13.20;6.15;;;;;;;0.71;55.60;100342.09;1738371;81;27643;-77
2022/04/04 01:54:10;;;;;;;10.95;6.45;;;;;;;0.70;55.80;100340.44;1752299;80;25830;-77
2022/04/04 01:56:36;;;;;;;12.70;6.25;;;;;;;0.64;55.82;100339.61;1747341;81;25748;-77
2022/04/04 01:59:02;;;;;;;10.82;5.67;;;;;;;0.64;56.03;100342.76;1733036;81;25923;-77
2022/04/04 02:01:29;;;;;;;10.93;6.00;;;;;;;0.59;56.21;100335.71;1744034;81;26082;-77
2022/04/04 02:03:57;;;;;;;15.10;5.60;;;;;;;0.57;56.40;100340.28;1744595;80;27653;-77
2022/04/04 02:06:24;;;;;;;12.28;6.15;;;;;;;0.53;56.42;100338.39;1744303;81;25916;-77
2022/04/04 02:08:50;;;;;;;11.73;6.12;;;;;;;0.54;56.50;100333.94;1744218;81;25922;-77
2022/04/04 02:11:19;;;;;;;14.83;6.10;;;;;;;0.54;56.60;100327.34;1728412;81;25801;-77
2022/04/04 02:13:47;;;;;;;15.40;5.92;;;;;;;0.54;56.73;100328.66;1736646;81;25808;-77
2022/04/04 02:16:13;;;;;;;11.68;6.42;;;;;;;0.50;56.82;100327.26;1730726;81;27538;-77
2022/04/04 02:18:40;;;;;;;9.85;5.65;;;;;;;0.46;56.88;100320.11;1749473;80;25870;-77
2022/04/04 02:21:10;;;;;;;11.73;6.37;;;;;;;0.44;57.05;100326.46;1738650;81;25931;-77
2022/04/04 02:23:36;;;;;;;13.83;6.75;;;;;;;0.41;57.13;100317.48;1737228;81;26145;-77
2022/04/04 02:26:03;;;;;;;9.65;5.47;;;;;;;0.39;57.23;100311.03;1750658;81;25925;-77
2022/04/04 02:28:30;;;;;;;11.15;5.45;;;;;;;0.38;57.27;100308.55;1757627;81;27489;-77
2022/04/04 02:30:57;;;;;;;8.95;5.10;;;;;;;0.38;57.28;100309.38;1757104;81;25981;-77
2022/04/04 02:33:24;;;;;;;10.93;5.87;;;;;;;0.37;57.39;100305.54;1714335;82;25832;-77
2022/04/04 02:35:51;;;;;;;9.95;5.60;;;;;;;0.36;57.41;100312.63;1728088;82;25855;-77
2022/04/04 02:38:21;;;;;;;12.90;5.30;;;;;;;0.36;57.56;100309.16;1729266;81;26119;-77
2022/04/04 02:40:48;;;;;;;13.28;5.40;;;;;;;0.34;57.51;100303.98;1733019;81;29294;-77
2022/04/04 02:43:14;;;;;;;9.53;5.40;;;;;;;0.35;57.57;100300.41;1737549;80;26393;-77
2022/04/04 02:45:41;;;;;;;10.08;5.37;;;;;;;0.35;57.73;100301.72;1728657;82;25932;-77
2022/04/04 02:48:08;;;;;;;11.12;5.03;;;;;;;0.36;57.55;100302.56;1728746;82;25637;-77
2022/04/04 02:50:35;;;;;;;10.08;5.53;;;;;;;0.37;57.63;100298.48;1717544;82;26041;-77
2022/04/04 02:53:02;;;;;;;10.85;5.47;;;;;;;0.36;57.75;100297.30;1728264;81;27434;-77
2022/04/04 02:58:14;;;;;;;9.60;5.70;;;;;;;0.37;57.95;100289.73;1728016;82;25836;-77
2022/04/04 03:00:41;;;;;;;17.07;6.37;;;;;;;0.38;57.94;100288.31;1728781;82;26009;-77
2022/04/04 03:03:08;;;;;;;10.30;4.70;;;;;;;0.38;58.21;100276.92;1728768;82;25815;-77
2022/04/04 03:05:34;;;;;;;10.65;5.53;;;;;;;0.39;58.15;100285.17;1729173;82;27493;-77
2022/04/04 03:08:01;;;;;;;10.20;5.53;;;;;;;0.40;58.16;100287.70;1727610;82;25888;-77
2022/04/04 03:10:27;;;;;;;12.60;5.80;;;;;;;0.43;58.25;100284.78;1723067;82;26032;-77
2022/04/04 03:12:53;;;;;;;11.40;5.15;;;;;;;0.43;58.37;100281.30;1726186;82;25746;-77
2022/04/04 03:15:23;;;;;;;9.35;5.60;;;;;;;0.44;58.48;100279.88;1727694;82;26454;-77
2022/04/04 03:17:53;;;;;;;9.93;5.72;;;;;;;0.44;58.50;100285.15;1727793;82;27471;-77
2022/04/04 03:20:22;;;;;;;13.90;6.17;;;;;;;0.45;58.50;100280.22;1727735;82;25739;-77
2022/04/04 03:22:52;;;;;;;11.88;6.42;;;;;;;0.47;58.54;100276.97;1723162;82;25829;-77
2022/04/04 03:25:19;;;;;;;11.38;6.33;;;;;;;0.48;58.75;100283.08;1728498;82;25737;-77
2022/04/04 03:27:47;;;;;;;14.00;6.45;;;;;;;0.50;58.83;100291.69;1728702;82;25726;-77
2022/04/04 03:30:20;;;;;;;10.95;7.00;;;;;;;0.50;58.86;100285.09;1690549;84;27725;-77
2022/04/04 03:32:49;;;;;;;12.47;6.37;;;;;;;0.51;58.94;100283.64;1672924;84;26469;-76
2022/04/04 03:35:17;;;;;;;13.35;6.58;;;;;;;0.54;59.02;100281.23;1669041;85;26014;-77
2022/04/04 03:37:47;;;;;;;9.10;5.97;;;;;;;0.56;59.13;100280.14;1697682;83;26285;-77
2022/04/04 03:40:14;;;;;;;10.15;5.87;;;;;;;0.58;59.13;100272.94;1686928;84;25912;-77
2022/04/04 03:42:42;;;;;;;13.53;7.00;;;;;;;0.59;59.11;100276.41;1683242;84;27460;-77
2022/04/04 03:45:14;;;;;;;12.23;6.83;;;;;;;0.61;59.22;100274.00;1697014;83;25954;-76
2022/04/04 03:47:43;;;;;;;10.72;5.25;;;;;;;0.66;59.38;100275.74;1673772;85;25797;-77
2022/04/04 03:50:12;;;;;;;12.60;7.15;;;;;;;0.66;59.58;100275.74;1671103;84;26241;-77
2022/04/04 03:52:41;;;;;;;9.98;5.85;;;;;;;0.68;59.37;100279.08;1702706;83;25990;-77
2022/04/04 03:55:10;;;;;;;15.58;7.17;;;;;;;0.71;59.58;100272.72;1697594;83;28335;-76
2022/04/04 03:57:37;;;;;;;17.27;8.30;;;;;;;0.71;59.55;100273.55;1695546;83;25848;-77
2022/04/04 04:00:05;;;;;;;15.65;8.23;;;;;;;0.73;59.74;100269.46;1696661;83;25772;-76
2022/04/04 04:02:34;;;;;;;17.23;7.25;;;;;;;0.76;59.75;100266.58;1680120;83;26489;-76
2022/04/04 04:05:02;;;;;;;18.40;7.30;;;;;;;0.77;59.89;100268.23;1679130;84;25924;-76
2022/04/04 04:07:28;;;;;;;13.55;7.03;;;;;;;0.78;59.85;100264.16;1681038;84;27581;-76
2022/04/04 04:09:54;;;;;;;15.08;7.22;;;;;;;0.81;60.21;100259.11;1697649;83;25913;-77
2022/04/04 04:12:21;;;;;;;16.00;6.62;;;;;;;0.81;59.98;100260.91;1694838;84;25846;-77
2022/04/04 04:14:51;;;;;;;14.20;8.35;;;;;;;0.83;60.43;100260.29;1698920;83;26254;-77
2022/04/04 04:17:24;;;;;;;14.38;8.23;;;;;;;0.83;60.31;100251.06;1692670;83;25946;-79
2022/04/04 04:22:36;;;;;;;13.62;7.05;;;;;;;0.85;60.73;100257.87;1695324;83;25838;-78
2022/04/04 04:25:04;;;;;;;16.70;9.75;;;;;;;0.84;60.88;100254.88;1697885;83;25941;-78
2022/04/04 04:27:31;;;;;;;12.47;8.63;;;;;;;0.86;60.85;100250.78;1697661;83;25954;-77
2022/04/04 04:29:57;;;;;;;15.23;8.63;;;;;;;0.87;61.03;100252.46;1697303;83;25912;-77
2022/04/04 04:32:25;;;;;;;17.02;8.30;;;;;;;0.88;60.95;100249.68;1688477;82;28314;-78
2022/04/04 04:34:52;;;;;;;14.40;8.60;;;;;;;0.89;61.06;100259.75;1718639;82;26158;-77
2022/04/04 04:37:23;;;;;;;11.75;7.42;;;;;;;0.90;61.27;100259.61;1717879;83;25805;-77
2022/04/04 04:39:50;;;;;;;14.87;7.33;;;;;;;0.91;61.39;100256.02;1716862;83;25970;-77
2022/04/04 04:42:16;;;;;;;15.45;8.00;;;;;;;0.90;61.69;100262.25;1715785;81;25804;-77
2022/04/04 04:44:44;;;;;;;14.70;8.30;;;;;;;0.92;61.76;100253.72;1715534;82;27496;-78
2022/04/04 04:47:11;;;;;;;14.63;8.33;;;;;;;0.94;61.75;100259.69;1709439;83;26060;-78
2022/04/04 04:49:37;;;;;;;14.80;7.92;;;;;;;0.96;61.79;100255.14;1718083;82;26144;-78
2022/04/04 04:52:04;;;;;;;14.00;8.03;;;;;;;0.98;62.16;100254.52;1719155;81;26465;-77
2022/04/04 04:54:30;;;;;;;13.75;7.78;;;;;;;0.99;62.72;100253.54;1717248;82;25990;-78
2022/04/04 04:56:57;;;;;;;18.40;9.73;;;;;;;0.99;63.41;100259.29;1717060;83;26904;-77
2022/04/04 04:59:24;;;;;;;17.25;10.90;;;;;;;1.00;65.75;100261.81;1717805;82;26021;-77
2022/04/04 05:01:50;;;;;;;19.67;10.43;;;;;;;0.96;66.60;100265.70;1717636;82;26529;-78
2022/04/04 05:04:16;;;;;;;16.45;11.18;;;;;;;0.94;66.75;100261.52;1680408;83;26208;-77
2022/04/04 05:06:48;;;;;;;15.98;9.88;;;;;;;0.92;68.22;100256.86;1690362;84;25801;-78
2022/04/04 05:09:11;;;;;;;16.12;8.68;;;;;;;0.90;68.27;100257.48;1698718;83;27483;-78
2022/04/04 05:11:37;;;;;;;12.58;7.70;;;;;;;0.89;69.17;100251.37;1686656;84;26517;-77
2022/04/04 05:14:05;;;;;;;14.58;8.13;;;;;;;0.88;69.77;100252.83;1694481;84;25768;-77
2022/04/04 05:16:31;;;;;;;20.43;8.93;;;;;;;0.86;70.27;100256.05;1694590;83;25951;-77
2022/04/04 05:18:58;;;;;;;18.98;10.08;;;;;;;0.84;71.44;100255.34;1699196;83;26138;-77
2022/04/04 05:21:24;;;;;;;15.53;8.65;;;;;;;0.82;69.95;100255.50;1694866;84;27540;-77
2022/04/04 05:23:50;;;;;;;17.73;9.60;;;;;;;0.85;70.79;100253.92;1694301;84;25803;-78
2022/04/04 05:26:17;;;;;;;18.65;8.95;;;;;;;0.87;70.40;100254.63;1694742;84;25786;-78
2022/04/04 05:28:43;;;;;;;16.02;8.28;;;;;;;0.89;70.26;100252.69;1695042;84;26402;-77
2022/04/04 05:31:10;;;;;;;18.55;8.75;;;;;;;0.91;70.27;100252.06;1691752;84;25850;-77
2022/04/04 05:33:36;;;;;;;13.55;7.53;;;;;;;0.92;70.23;100251.59;1694096;83;28307;-78
2022/04/04 05:36:04;;;;;;;14.85;9.43;;;;;;;0.96;70.80;100249.03;1702545;83;25868;-78
2022/04/04 05:38:31;;;;;;;18.87;9.58;;;;;;;0.99;70.43;100256.17;1686198;84;25620;-77
2022/04/04 05:40:57;;;;;;;18.62;8.90;;;;;;;1.00;71.28;100257.02;1695268;84;25888;-77
2022/04/04 05:43:23;;;;;;;14.18;8.13;;;;;;;0.99;71.45;100258.81;1694413;83;25736;-77
2022/04/04 05:45:50;;;;;;;16.32;8.60;;;;;;;0.99;71.54;100259.29;1694610;84;26984;-78
2022/04/04 05:48:16;;;;;;;13.38;8.68;;;;;;;0.98;72.74;100256.32;1694560;84;25817;-77
2022/04/04 05:50:42;;;;;;;15.38;9.60;;;;;;;0.94;73.30;100256.24;1688444;84;25266;-78
2022/04/04 05:53:09;;;;;;;15.18;9.13;;;;;;;0.90;73.17;100256.16;1705023;82;26253;-77
2022/04/04 05:55:36;;;;;;;15.30;8.48;;;;;;;0.90;73.11;100262.25;1705441;83;26555;-77
2022/04/04 05:58:02;;;;;;;14.80;8.85;;;;;;;0.92;74.05;100259.50;1705571;83;28888;-78
2022/04/04 06:00:29;;;;;;;15.30;9.15;;;;;;;0.94;73.58;100263.64;1705829;83;25832;-77
2022/04/04 06:02:57;;;;;;;15.98;9.43;;;;;;;0.98;74.30;100261.12;1705678;83;26580;-78
2022/04/04 06:05:23;;;;;;;16.97;10.53;;;;;;;0.99;74.11;100255.33;1705579;83;25787;-77
2022/04/04 06:07:50;;;;;;;16.37;9.65;;;;;;;1.02;74.51;100253.28;1705479;84;25879;-77
2022/04/04 06:10:16;;;;;;;15.58;10.40;;;;;;;1.03;74.87;100259.37;1705414;83;28333;-77
2022/04/04 06:12:44;;;;;;;17.60;10.23;;;;;;;1.06;75.36;100260.44;1701114;83;26458;-77
2022/04/04 06:15:10;;;;;;;16.80;9.65;;;;;;;1.09;74.94;100252.27;1705851;83;25770;-77
2022/04/04 06:17:38;;;;;;;20.95;11.22;;;;;;;1.14;74.79;100247.39;1705407;84;25856;-78
2022/04/04 06:20:08;;;;;;;18.70;10.32;;;;;;;1.21;75.19;100251.17;1705645;84;25963;-77
2022/04/04 06:22:39;;;;;;;19.95;11.68;;;;;;;1.26;75.36;100247.14;1705257;82;27445;-77
2022/04/04 06:25:08;;;;;;;14.07;9.75;;;;;;;1.33;74.93;100254.03;1705140;84;26013;-77
2022/04/04 06:27:36;;;;;;;18.40;11.08;;;;;;;1.43;74.95;100242.52;1705596;82;26171;-77
2022/04/04 06:30:04;;;;;;;20.45;10.58;;;;;;;1.54;74.67;100245.51;1705329;83;25838;-77
2022/04/04 06:32:31;;;;;;;16.02;10.18;;;;;;;1.64;74.58;100239.77;1693737;83;25950;-77
2022/04/04 06:34:57;;;;;;;18.40;10.75;;;;;;;1.75;74.54;100241.44;1673697;84;27496;-77
2022/04/04 06:37:23;;;;;;;23.42;12.55;;;;;;;1.86;74.60;100231.55;1686712;83;25753;-77
2022/04/04 06:39:49;;;;;;;16.57;10.30;;;;;;;1.98;74.91;100231.77;1687222;84;26490;-77
2022/04/04 06:42:16;;;;;;;19.70;10.38;;;;;;;2.07;74.44;100230.08;1711013;83;25848;-77
2022/04/04 06:44:42;;;;;;;17.65;11.65;;;;;;;2.14;74.42;100235.12;1683174;84;26035;-77
2022/04/04 06:47:12;;;;;;;20.62;12.98;;;;;;;2.19;74.37;100232.90;1701800;83;27006;-77
2022/04/04 06:49:40;;;;;;;14.33;10.07;;;;;;;2.23;73.87;100233.80;1708663;83;25722;-77
2022/04/04 06:52:06;;;;;;;16.20;10.70;;;;;;;2.27;74.27;100232.53;1713395;83;25897;-77
2022/04/04 06:54:32;;;;;;;16.85;9.55;;;;;;;2.29;73.66;100233.22;1706101;83;25694;-77
2022/04/04 06:56:59;;;;;;;15.53;9.75;;;;;;;2.35;74.06;100230.00;1705377;83;25721;-77
2022/04/04 06:59:25;;;;;;;14.05;8.88;;;;;;;2.43;73.84;100235.06;1671171;85;27521;-78
2022/04/04 07:01:51;;;;;;;17.05;9.33;;;;;;;2.50;73.93;100233.53;1674839;84;25806;-77
2022/04/04 07:04:18;;;;;;;15.58;11.15;;;;;;;2.54;74.14;100226.48;1683518;84;25850;-78
2022/04/04 07:06:44;;;;;;;16.55;9.25;;;;;;;2.58;73.38;100228.34;1682192;84;25835;-77
2022/04/04 07:09:11;;;;;;;18.87;10.80;;;;;;;2.64;73.28;100219.83;1672385;84;26339;-78
2022/04/04 07:11:37;;;;;;;15.88;10.65;;;;;;;2.70;73.22;100224.52;1713612;83;27476;-78
2022/04/04 07:14:03;;;;;;;16.55;11.25;;;;;;;2.79;73.37;100221.85;1685657;84;26072;-77
2022/04/04 07:16:32;;;;;;;14.65;10.43;;;;;;;2.89;73.41;100225.27;1695793;84;26147;-78
2022/04/04 07:18:58;;;;;;;14.10;8.93;;;;;;;2.99;72.46;100211.50;1675293;84;26288;-78
2022/04/04 07:21:25;;;;;;;18.80;9.58;;;;;;;3.04;72.75;100206.61;1683329;84;26538;-77
2022/04/04 07:23:51;;;;;;;14.15;8.98;;;;;;;3.09;72.57;100208.33;1676815;84;28242;-77
2022/04/04 07:26:19;;;;;;;13.30;9.40;;;;;;;3.17;72.37;100203.60;1694742;84;26489;-78
2022/04/04 07:28:46;;;;;;;14.53;9.63;;;;;;;3.23;72.25;100199.55;1697749;83;25808;-78
2022/04/04 07:31:15;;;;;;;18.75;9.45;;;;;;;3.30;72.31;100195.30;1697246;84;25819;-77
2022/04/04 07:33:41;;;;;;;13.68;9.63;;;;;;;3.38;71.88;100196.72;1684216;83;25759;-78
2022/04/04 07:36:08;;;;;;;14.55;9.85;;;;;;;3.48;71.50;100186.88;1727773;81;28303;-77
2022/04/04 07:38:34;;;;;;;15.65;9.70;;;;;;;3.60;71.43;100181.20;1726683;82;25788;-78
2022/04/04 07:41:00;;;;;;;14.40;9.83;;;;;;;3.71;71.83;100176.16;1696160;84;25831;-78
2022/04/04 07:43:27;;;;;;;19.67;9.90;;;;;;;3.90;72.19;100180.78;1675894;84;25958;-78
2022/04/04 07:45:53;;;;;;;17.95;9.83;;;;;;;4.08;71.38;100176.78;1718053;81;25307;-78
2022/04/04 07:48:19;;;;;;;15.10;8.60;;;;;;;4.26;71.20;100175.38;1694518;84;27525;-80
2022/04/04 07:50:45;;;;;;;14.70;10.13;;;;;;;4.40;71.43;100175.66;1690898;84;25653;-79
2022/04/04 07:53:13;;;;;;;12.33;8.78;;;;;;;4.54;71.11;100172.39;1696262;83;25890;-78
2022/04/04 07:55:40;;;;;;;12.70;9.03;;;;;;;4.62;70.17;100175.56;1722894;82;26271;-78
2022/04/04 07:58:06;;;;;;;13.98;8.28;;;;;;;4.66;69.51;100171.11;1719343;81;26454;-78
2022/04/04 08:00:33;;;;;;;15.58;8.38;;;;;;;4.69;69.26;100168.64;1716424;82;28341;-78
2022/04/04 08:02:59;;;;;;;13.68;9.53;;;;;;;4.73;68.74;100170.50;1717575;81;25491;-78
2022/04/04 08:05:28;;;;;;;13.45;9.18;;;;;;;4.83;69.21;100165.41;1688553;84;25349;-78
2022/04/04 08:07:54;;;;;;;12.68;8.00;;;;;;;4.92;68.36;100167.06;1706253;83;26078;-78
2022/04/04 08:10:21;;;;;;;12.93;8.65;;;;;;;4.98;68.39;100151.85;1706164;83;25890;-77
2022/04/04 08:12:51;;;;;;;14.23;9.60;;;;;;;5.05;67.78;100152.00;1706531;82;28299;-78
2022/04/04 08:15:17;;;;;;;12.30;7.45;;;;;;;5.08;67.53;100150.36;1705995;84;26572;-78
2022/04/04 08:17:44;;;;;;;12.40;7.95;;;;;;;5.10;67.63;100147.05;1706218;83;25900;-77
2022/04/04 08:20:11;;;;;;;14.95;7.72;;;;;;;5.12;66.58;100142.41;1706038;84;25949;-77
2022/04/04 08:22:42;;;;;;;10.85;8.65;;;;;;;5.16;66.66;100146.39;1705890;82;25981;-78
2022/04/04 08:25:12;;;;;;;11.88;8.30;;;;;;;5.23;66.69;100132.32;1705677;83;27473;-77
2022/04/04 08:27:38;;;;;;;11.97;8.68;;;;;;;5.36;67.12;100135.81;1706351;83;26484;-78
2022/04/04 08:30:07;;;;;;;17.60;9.73;;;;;;;5.51;66.83;100139.97;1705620;84;25867;-77
2022/04/04 08:32:38;;;;;;;11.88;7.15;;;;;;;5.63;66.24;100133.32;1705428;82;26267;-78
2022/04/04 08:35:06;;;;;;;;;;;;;;;5.67;64.64;100134.16;1699431;84;25730;-78
2022/04/04 08:37:35;;;;;;;24.82;16.00;;;;;;;5.69;64.62;100131.35;1703017;83;27349;-78
2022/04/04 08:40:03;;;;;;;16.60;9.15;;;;;;;5.76;65.31;100129.17;1702644;84;25947;-78
2022/04/04 08:42:30;;;;;;;18.30;9.45;;;;;;;5.78;63.61;100125.01;1702633;84;26460;-77
2022/04/04 08:44:59;;;;;;;14.38;6.17;;;;;;;5.76;63.39;100128.34;1703138;84;25824;-78
2022/04/04 08:47:27;;;;;;;19.65;7.00;;;;;;;5.72;62.95;100114.56;1703551;84;25922;-77
2022/04/04 08:49:56;;;;;;;14.58;6.72;;;;;;;5.82;64.04;100111.22;1703520;83;27563;-78
2022/04/04 08:52:24;;;;;;;8.73;5.42;;;;;;;6.05;63.70;100104.75;1691081;84;25924;-77
2022/04/04 08:54:50;;;;;;;13.13;6.50;;;;;;;6.28;63.90;100099.03;1703206;84;25869;-77
2022/04/04 08:57:17;;;;;;;11.55;5.85;;;;;;;6.43;63.47;100100.47;1703061;83;25884;-78
2022/04/04 08:59:44;;;;;;;18.23;9.70;;;;;;;6.51;63.09;100096.44;1703600;83;26151;-78
2022/04/04 09:02:12;;;;;;;13.62;5.10;;;;;;;6.56;60.69;100091.44;1702295;82;27482;-77
2022/04/04 09:04:40;;;;;;;13.38;6.12;;;;;;;6.53;60.93;100086.45;1703022;84;26489;-78
2022/04/04 09:07:09;;;;;;;13.00;5.47;;;;;;;6.55;60.78;100091.94;1703012;84;25855;-77
2022/04/04 09:09:45;;;;;;;9.48;4.62;;;;;;;6.55;60.72;100089.27;1704248;83;26221;-78
2022/04/04 09:12:21;;;;;;;9.75;5.17;;;;;;;6.54;60.07;100088.97;1705612;84;25752;-77
2022/04/04 09:14:51;;;;;;;9.33;5.05;;;;;;;6.49;59.31;100079.83;1705833;83;27668;-78
2022/04/04 09:17:21;;;;;;;10.28;5.05;;;;;;;6.43;59.16;100078.70;1706278;84;25909;-77
2022/04/04 09:19:47;;;;;;;17.12;8.03;;;;;;;6.46;58.95;100077.53;1706362;83;25840;-77
2022/04/04 09:22:20;;;;;;;13.58;5.92;;;;;;;6.44;59.23;100067.53;1705774;84;26203;-79
2022/04/04 09:24:57;;;;;;;13.32;5.55;;;;;;;6.44;58.04;100078.17;1706116;84;25755;-77
2022/04/04 09:27:36;;;;;;;12.70;4.75;;;;;;;6.48;58.05;100074.99;1704697;84;27576;-77
2022/04/04 09:30:08;;;;;;;7.90;4.37;;;;;;;6.62;59.62;100070.29;1705399;83;25580;-76
2022/04/04 09:32:41;;;;;;;14.98;6.22;;;;;;;6.75;59.63;100057.74;1678987;84;25850;-77
2022/04/04 09:35:13;;;;;;;12.40;6.33;;;;;;;6.90;59.75;100054.16;1704804;84;26236;-77
2022/04/04 09:37:41;;;;;;;;;;;;;;;7.06;57.50;100046.54;1707210;84;27149;-77
2022/04/04 09:40:15;;;;;;;11.20;5.67;;;;;;;7.01;56.46;100044.94;1703017;83;27489;-77
2022/04/04 09:42:53;;;;;;;12.13;5.30;;;;;;;6.93;57.00;100052.95;1704099;84;26087;-77
2022/04/04 09:45:24;;;;;;;10.28;4.70;;;;;;;6.91;57.48;100043.82;1703606;84;25989;-77
2022/04/04 09:47:55;;;;;;;13.50;5.53;;;;;;;6.91;57.00;100038.50;1704696;82;25800;-77
2022/04/04 09:50:50;;;;;;;8.45;4.80;;;;;;;7.09;57.65;100030.72;1706359;83;25330;-77
2022/04/04 09:53:23;;;;;;;12.33;5.58;;;;;;;7.22;57.61;100026.45;1706314;83;27460;-77
2022/04/04 09:55:52;;;;;;;32.05;15.60;;;;;;;7.25;55.07;100019.42;1706118;83;26503;-77
2022/04/04 09:58:22;;;;;;;39.88;18.05;;;;;;;7.16;54.51;100029.84;1704524;83;25895;-77
2022/04/04 10:00:49;;;;;;;34.35;19.37;;;;;;;7.14;54.63;100021.20;1705904;83;34945;-77
2022/04/04 10:03:18;;;;;;;16.70;11.73;;;;;;;7.20;54.73;100011.16;1705916;82;25765;-77
2022/04/04 10:05:56;;;;;;;14.35;7.03;;;;;;;7.20;53.76;100011.16;1706173;83;27639;-77
2022/04/04 10:08:25;;;;;;;11.85;6.87;;;;;;;7.18;54.23;100005.69;1702046;83;25987;-77
2022/04/04 10:10:54;;;;;;;9.30;5.25;;;;;;;7.18;54.54;100004.35;1706254;83;25883;-77
2022/04/04 10:13:23;;;;;;;14.15;7.33;;;;;;;7.33;54.90;100000.73;1705464;83;26331;-77
2022/04/04 10:15:51;;;;;;;10.95;7.42;;;;;;;7.51;54.97;99990.55;1705541;83;26473;-77
2022/04/04 10:18:19;;;;;;;7.85;5.17;;;;;;;7.54;53.58;99989.36;1706234;83;27435;-77
2022/04/04 10:20:53;;;;;;;16.75;5.10;;;;;;;7.52;53.19;99990.05;1705831;83;25378;-77
2022/04/04 10:23:17;;;;;;;12.28;5.58;;;;;;;7.48;53.07;99978.10;1701995;82;26585;-77
2022/04/04 10:25:55;;;;;;;12.25;7.67;;;;;;;7.44;52.31;99980.28;1696264;83;26014;-77
2022/04/04 10:28:37;;;;;;;23.02;10.60;;;;;;;7.47;52.76;99973.27;1705198;83;25801;-77
2022/04/04 10:31:18;;;;;;;13.80;5.67;;;;;;;7.55;53.46;99975.84;1705585;83;28346;-77
2022/04/04 10:33:46;;;;;;;11.83;4.33;;;;;;;7.58;53.02;99975.49;1696064;83;25887;-77
2022/04/04 10:36:22;;;;;;;8.30;3.87;;;;;;;7.57;52.68;99971.69;1748971;80;25798;-77
2022/04/04 10:38:54;;;;;;;12.70;3.40;;;;;;;7.58;52.72;99964.83;1752099;81;25877;-77
2022/04/04 10:41:25;;;;;;;7.92;3.83;;;;;;;7.65;51.90;99973.76;1757287;81;25997;-77
2022/04/04 10:43:54;;;;;;;8.15;4.00;;;;;;;7.60;51.44;99958.81;1757061;81;27470;-77
2022/04/04 10:46:23;;;;;;;15.60;4.90;;;;;;;7.54;51.34;99956.88;1732633;81;25873;-77
2022/04/04 10:48:59;;;;;;;13.98;4.40;;;;;;;7.57;52.45;99960.49;1755971;81;25757;-77
2022/04/04 10:51:34;;;;;;;8.68;4.42;;;;;;;7.58;50.47;99955.50;1751868;81;25941;-77
2022/04/04 10:54:05;;;;;;;6.75;3.50;;;;;;;7.54;51.72;99955.55;1744686;81;26564;-77
2022/04/04 10:56:46;;;;;;;9.80;4.85;;;;;;;7.59;50.78;99946.48;1743346;81;27468;-77
2022/04/04 10:59:24;;;;;;;11.08;5.42;;;;;;;7.79;52.30;99938.27;1743878;81;25819;-77
2022/04/04 11:01:56;;;;;;;13.85;4.83;;;;;;;7.97;51.83;99940.55;1737450;81;25834;-77
2022/04/04 11:04:36;;;;;;;12.03;5.15;;;;;;;8.05;50.95;99933.78;1740228;81;25904;-77
2022/04/04 11:10:07;;;;;;;8.23;4.15;;;;;;;8.14;50.19;99925.99;1757111;81;27479;-76
2022/04/04 11:13:08;;;;;;;8.58;4.80;;;;;;;8.08;49.36;99931.25;1756824;81;25945;-77
2022/04/04 11:15:55;;;;;;;11.43;4.53;;;;;;;8.06;50.53;99927.94;1757242;81;25791;-77
2022/04/04 11:18:32;;;;;;;10.53;4.03;;;;;;;8.20;50.24;99925.73;1757342;81;25803;-77
2022/04/04 11:20:59;;;;;;;9.93;4.25;;;;;;;8.22;50.70;99917.87;1756005;81;25802;-77
2022/04/04 11:23:34;;;;;;;8.68;4.30;;;;;;;8.21;49.85;99911.40;1743660;81;28791;-77
2022/04/04 11:26:04;;;;;;;9.10;3.67;;;;;;;8.13;50.14;99916.82;1745624;81;26134;-77
2022/04/04 11:28:35;;;;;;;13.22;4.00;;;;;;;8.09;50.26;99909.71;1738747;81;25989;-77
2022/04/04 11:31:09;;;;;;;15.10;4.78;;;;;;;8.08;50.48;99904.08;1749830;81;25846;-77
2022/04/04 11:33:51;;;;;;;10.15;3.52;;;;;;;8.09;50.43;99904.38;1756822;81;26102;-78
2022/04/04 11:36:27;;;;;;;5.28;3.37;;;;;;;8.10;50.43;99906.05;1749206;81;28290;-77
2022/04/04 11:38:57;;;;;;;11.28;3.10;;;;;;;8.12;50.26;99896.52;1707168;83;25757;-77
2022/04/04 11:41:22;;;;;;;12.43;4.65;;;;;;;8.10;48.63;99893.20;1744824;80;25262;-77